Report and full results in prep.

Category Prize Name Club Time
1st Man James Blore Chepstow Harriers 01:17:32
1st Lady Niki Morgan Mynydd Du 01:34:21
2nd Man Paul Murrin Chepstow Harriers 01:18:34
2nd Lady Natalie Taylor Mynydd Du 01:34:33
3rd Lady Clare Dallimore MDC 01:35:34
3rd Man Jonny Like Mynydd Du 01:19:56
1st V40 Lady Claire Aspinall Pennine Fell Runners 01:37:09
1st V40 Man Brendan Davies Unattached 01:20:51
1st V50 Lady Ruth Pickvance Mynydd Du 01:44:00
1st V50 Man Andrew Davies Mercia Fell Runners 01:27:42
1st V60 Man David Vaudin Team Bath AC 01:34:05
1st V60 Lady Alison Brentnall Pennine Fell Runners 02:06:10
1st V70 Man Alan Brentnall Pennine Fell Runners 01:50:30
1st V70 Lady - -    
1st V80 Lady - -    
1st V80 Man - -    
M team James Blore, Paul Murrin, Matthew Lawson Chepstow Harriers 04:10:42
F team Niki Morgan, Natalie Taylor, Hannah Hopkinson Mynydd Du 04:46:01

I cannot load full results to the normal results page just now (problems connecting to the database server...) so here they are temporarily here:

Pos Time Name # Club Cat Cat Pos Prize
1 01:17:32 James Blore 122 Chepstow Harriers MS 1 1st Man
2 01:18:34 Paul Murrin 85 Chepstow Harriers MV40 1 2nd Man
3 01:19:56 Jonny Like 118 Mynydd Du MS 2 3rd Man
4 01:20:51 Brendan Davies 79 Unattached MV40 2 1st V40 Man
5 01:21:09 Edward Porter 14 Unattached MS 3  
6 01:21:18 Russell Williams 28 Unattached MV40 3  
7 01:22:36 Nathan Brickman 110 Belper Harriers MS 4  
8 01:23:10 Seth Ford 56 Unattached MS 5  
9 01:26:13 Thomas Mollekin 97 Mynydd Du MS 6  
10 01:26:23 Rob Furlong 39 Weston AC MV40 4  
11 01:27:42 Andrew Davies 131 Mercia Fell Runners MV50 1 1st V50 Man
12 01:27:49 Leslie Cupis 63 Ryde Harriers MV50 2  
13 01:28:40 Dan Sandford 80 Forest of Dean AC MV40 5  
14 01:28:50 Daniel Hooper 114 Sarn Helen MV40 6  
15 01:29:08 Ross Langley 50 Tring Running Club MS 7  
16 01:29:11 Matthew Farrer 104 Unattached MS 8  
17 01:29:29 Mark Slaney 81 Basingstoke & Mid ... MV50 3  
18 01:29:55 Matthew Grimshaw 75 Unattached MS 9  
19 01:30:31 Simon Roberts 43 MDC MS 10  
20 01:31:57 Andy Vaudin 25 Unattached MV50 4  
21 01:32:05 Gary Pearson 121 Croft Ambrey MV40 7  
22 01:32:07 Crispin Flower 87 Mynydd Du MV50 5  
23 01:33:27 Richard Love 116 Mercia Fell Runners MV50 6  
24 01:34:05 David Vaudin 95 Team Bath AC MV60 1 1st V60 Man
25 01:34:09 Chris Chambers 11 Mynydd Du MV40 8  
26 01:34:17 Richard Sheehy 119 Parc Bryn Bach MS 11  
27 01:34:21 Niki Morgan 47 Mynydd Du FV50 1 1st Lady
28 01:34:36 Matthew Lawson 126 Chepstow Harriers MV50 7  
29 01:34:33 Natalie Taylor 132 Mynydd Du FS 1 2nd Lady
30 01:35:00 Neil Coe 61 Mynydd Du MV40 9  
31 01:35:34 Clare Dallimore 82 MDC FS 2 3rd Lady
32 01:35:46 Aisling Wall 62 Horsforth Harriers FS 3  
33 01:36:22 Pete Clark 60 Unattached MS 12  
34 01:36:34 James Woodier 73 Mynydd Du MS 13  
35 01:36:43 Rhys Pippard 10 Mynydd Du MS 14  
36 01:37:07 Hannah Hopkinson 117 Mynydd Du FS 4  
37 01:37:09 Claire Aspinall 44 Pennine Fell Runners FV40 1 1st V40 Lady
38 01:37:16 Holly Gourley 52 Ledbury and Distri... FV40 2  
39 01:38:34 Andrew Hunter 92 Beeston AC MV40 10  
40 01:38:58 Ben Lowe 57 Stroud & District AC MV40 11  
41 01:39:02 Kevin Fosbury 86 Mynydd Du MS 15  
42 01:39:08 Andy Creber 105 Mynydd Du MV60 2  
43 01:39:14 Julie Cashell 88 Mynydd Du FV40 3  
44 01:39:24 Clem Dixon 2 Cambridge Harriers MV50 8  
45 01:40:25 Huw Morgan 90 Unattached MV40 12  
46 01:40:36 Gary Hughes 123 Mynydd Du MS 16  
47 01:40:54 Matthew Haynes 134 Unattached MV40 13  
48 01:41:44 David Sexton 113 Settle Harriers MV40 14  
49 01:42:49 Yuen Ng 38 Unattached MS 17  
50 01:42:50 Paul Rose 34 Unattached MS 18  
51 01:43:34 Jon Gubb 35 3cTri MV40 15  
52 01:43:37 Joe Lowe 68 Unattached MS 19  
53 01:43:45 Stefan Morfey 115 MDC MS 20  
54 01:43:45 Alun Mills 69 Unattached MS 21  
55 01:43:48 Noel Waterston 58 Unattached MV60 3  
56 01:43:55 Duncan Loughrey 108 Mynydd Du MV50 9  
57 01:43:57 Steve Owen 89 Chepstow Harriers MV60 4  
58 01:44:00 Naomi Law 93 Mynydd Du FV40 4  
59 01:44:00 Ruth Pickvance 112 Mynydd Du FV50 2 1st V50 Lady
60 01:45:01 Lou Summers 120 Mynydd Du FV50 3  
61 01:45:31 Guy Bradford 94 Weston AC MV40 16  
62 01:46:17 Evan Ryan 128 Mynydd Du MS 22  
63 01:46:36 Vanessa Lawson 125 Chepstow Harriers FV40 5  
64 01:46:45 Don Powell 78 Basingstoke & Mid ... MV60 5  
65 01:47:17 Richard Rule 49 Springfield Striders MV50 10  
66 01:47:49 Mark Batten 33 Chepstow Harriers MV50 11  
67 01:47:59 Ged Murphy 101 Unattached MV40 17  
68 01:48:14 Ken Beak 19 Ryde Harriers MV50 12  
69 01:48:33 John Manning 41 Tring Running Club MV60 6  
70 01:48:41 Sarah Jeremiah 29 Parc Bryn Bach FV40 6  
71 01:48:41 Gareth Welch 135 Unattached MV40 18  
72 01:48:58 Lowri Woodier 74 Mynydd Du FS 5  
73 01:49:13 Christine Farr 96 MDC FV40 7  
74 01:49:24 Hugh Morgan-Jones 98 Unattached MV50 13  
75 01:49:37 Ben Watkins 133 Mynydd Du MS 23  
76 01:49:33 John Nash 102 Chepstow Harriers MV50 14  
77 01:50:01 David Powlesland 109 MDC MS 24  
78 01:50:30 Alan Brentnall 67 Pennine Fell Runners MV70 1 1st V70 Man
79 01:51:01 Pete Morfey 111 Cardiff Harlequins MV60 7  
80 01:51:47 Adam Billot 45 Unattached MV50 15  
81 01:53:19 Paul Hills 27 Pennine Fell Runners MV60 8  
82 01:53:31 Tim Buckley 77 Chepstow Harriers MV50 16  
83 01:54:30 Katie Ironside 91 MDC FS 6  
84 01:54:40 Elaine Parry 23 Ryde Harriers FV40 8  
85 01:55:44 Tim Brockington 46 Springfield Striders MV60 9  
86 01:58:05 Sharon Woods 127 Mynydd Du FV50 4  
87 01:58:06 Sara Demetriou 32 Springfield Striders FV40 9  
88 01:58:45 Dave Austin 30 Chepstow Harriers MV40 19  
89 02:00:05 Tim Fowler 100 Basingstoke & Mid ... MV60 10  
90 02:00:36 Liz Coates 51 Square And Compass... FS 7  
91 02:01:52 Anthony Phillips 129 Bridgend AC MV50 17  
92 02:02:00 William (John) Darby 124 Mynydd Du MV60 11  
93 02:02:44 Stewart Thomson 130 Mynydd Du MV50 18  
94 02:02:45 Angela Champion 9 Mynydd Du FV40 10  
95 02:03:18 Paul Symons 107 Unattached MV50 19  
96 02:03:32 Pauline Hilley 59 Unattached FS 8  
97 02:04:31 Karen Elvers 54 MDC FV40 11  
98 02:04:38 Caroline Powell 53 Unattached FV50 5  
99 02:05:33 John Williams 48 Pennine Fell Runners MV60 12  
100 02:06:10 Alison Brentnall 70 Pennine Fell Runners FV60 1 1st V60 Lady
101 02:06:18 Norman Jones 106 MDC MV60 13  
102 02:06:57 Samantha Fancourt 17 Ryde Harriers FV40 12  
103 02:07:27 Dewi Lloyd 99 Islwyn Running Club MS 25  
104 02:09:55 Claire Bayliss 71 Unattached FS 9  
105 02:10:47 Wendy Sharpe-Nash 103 Chepstow Harriers FV50 6  
106 02:11:10 Rosie Eldridge 16 Ryde Harriers FV40 13  
107 02:11:25 Stefanie Francis 4 Forest of Dean AC FV50 7  
108 02:12:32 Phil Wilson 65 Unattached MV50 20  
109 02:13:07 Janet Hill 55 Springfield Striders FV60 2  
110 02:13:19 Alice Knight 37 Wells City Harriers FV50 8  
111 02:13:19 Andrew Pate 36 Wells City Harriers MV60 14  
112 02:14:06 Linda Hammond 72 Rhayader Running C... FV50 9  
113 02:14:06 Cecilia Harman 66 Rhayader Running C... FS 10  
114 02:15:10 Ian Marshall 12 Cambridge Harriers MV70 2  
115 02:20:46 Kate Hepton 83 Mynydd Du FV40 14  
116 02:20:47 James Bowers 84 Brecon Triathlon C... MS 26  
117 02:41:42 Jane Harries 31 Ful-On Tri FV50 10